Time;durP1;ratioP1;P1;durP2;ratioP2;P2;SDS_P1;SDS_P2;PMS_P1;PMS_P2;Temp;Humidity;BMP_temperature;BMP_pressure;BME280_temperature;BME280_humidity;BME280_pressure;Samples;Min_cycle;Max_cycle;Signal;HPM_P1;HPM_P2
2022/08/13 00:00:59;;;;;;;7.20;6.00;;;;;;;;;;4954237;28;20518;-42
2022/08/13 00:03:26;;;;;;;6.97;5.73;;;;;;;;;;4956430;28;20398;-42
2022/08/13 00:05:52;;;;;;;9.83;6.20;;;;;;;;;;4957043;28;20273;-42
2022/08/13 00:08:23;;;;;;;6.97;5.10;;;;;;;;;;4953284;28;20178;-42
2022/08/13 00:10:49;;;;;;;7.77;5.30;;;;;;;;;;4955109;28;20590;-42
2022/08/13 00:13:18;;;;;;;7.43;4.87;;;;;;;;;;4957586;28;20667;-42
2022/08/13 00:15:45;;;;;;;5.60;4.90;;;;;;;;;;4956629;28;20190;-43
2022/08/13 00:18:14;;;;;;;6.63;4.80;;;;;;;;;;4952132;28;20178;-42
2022/08/13 00:20:43;;;;;;;6.30;5.70;;;;;;;;;;4955461;28;20189;-43
2022/08/13 00:23:11;;;;;;;6.47;5.03;;;;;;;;;;4958495;28;20440;-43
2022/08/13 00:25:37;;;;;;;4.20;3.80;;;;;;;;;;4956580;28;20625;-43
2022/08/13 00:28:04;;;;;;;6.03;3.83;;;;;;;;;;4953395;28;20186;-41
2022/08/13 00:30:33;;;;;;;8.63;3.77;;;;;;;;;;4957701;28;20212;-43
2022/08/13 00:33:04;;;;;;;5.20;3.83;;;;;;;;;;4957783;28;20249;-43
2022/08/13 00:35:31;;;;;;;5.37;3.30;;;;;;;;;;4954090;28;20291;-43
2022/08/13 00:37:57;;;;;;;4.07;3.13;;;;;;;;;;4953423;28;20797;-43
2022/08/13 00:40:24;;;;;;;5.40;2.90;;;;;;;;;;4955602;28;20361;-43
2022/08/13 00:42:53;;;;;;;4.83;3.20;;;;;;;;;;4955418;28;20177;-43
2022/08/13 00:45:20;;;;;;;4.23;2.73;;;;;;;;;;4953366;28;20178;-43
2022/08/13 00:50:32;;;;;;;3.73;2.60;;;;;;;;;;4954667;28;21006;-43
2022/08/13 00:52:58;;;;;;;5.20;2.93;;;;;;;;;;4952567;28;20188;-43
2022/08/13 00:55:24;;;;;;;5.30;2.70;;;;;;;;;;4955618;28;20701;-43
2022/08/13 00:57:51;;;;;;;3.33;2.60;;;;;;;;;;4957723;28;20233;-43
2022/08/13 01:00:19;;;;;;;2.37;2.10;;;;;;;;;;4952281;28;20178;-43
2022/08/13 01:02:47;;;;;;;4.33;2.57;;;;;;;;;;4953872;28;20170;-41
2022/08/13 01:05:13;;;;;;;4.67;2.63;;;;;;;;;;4955783;28;20590;-43
2022/08/13 01:07:41;;;;;;;3.43;3.00;;;;;;;;;;4954314;28;20198;-42
2022/08/13 01:10:08;;;;;;;2.93;2.73;;;;;;;;;;4955070;28;20193;-43
2022/08/13 01:12:36;;;;;;;5.10;2.87;;;;;;;;;;4955507;28;20284;-43
2022/08/13 01:15:03;;;;;;;2.77;2.47;;;;;;;;;;4952278;28;20209;-43
2022/08/13 01:17:29;;;;;;;4.13;2.93;;;;;;;;;;4956064;28;20166;-43
2022/08/13 01:19:56;;;;;;;3.93;2.97;;;;;;;;;;4953753;28;20174;-43
2022/08/13 01:22:23;;;;;;;3.07;2.60;;;;;;;;;;4952637;28;20261;-43
2022/08/13 01:24:50;;;;;;;4.17;2.70;;;;;;;;;;4955202;28;20610;-43
2022/08/13 01:27:18;;;;;;;2.87;2.60;;;;;;;;;;4955950;28;20177;-42
2022/08/13 01:29:47;;;;;;;3.30;2.77;;;;;;;;;;4952450;28;20533;-43
2022/08/13 01:32:15;;;;;;;3.73;2.27;;;;;;;;;;4954253;28;20580;-43
2022/08/13 01:34:42;;;;;;;4.37;2.47;;;;;;;;;;4954617;28;20859;-43
2022/08/13 01:37:09;;;;;;;2.77;2.47;;;;;;;;;;4953069;28;20248;-43
2022/08/13 01:39:35;;;;;;;3.50;2.70;;;;;;;;;;4953525;28;20917;-43
2022/08/13 01:42:01;;;;;;;3.20;2.47;;;;;;;;;;4956438;28;20178;-43
2022/08/13 01:44:31;;;;;;;5.37;3.30;;;;;;;;;;4953127;28;21044;-43
2022/08/13 01:52:34;;;;;;;6.17;5.10;;;;;;;;;;4955663;28;20193;-42
2022/08/13 01:55:05;;;;;;;6.00;4.30;;;;;;;;;;4952199;28;20238;-42
2022/08/13 01:57:33;;;;;;;5.60;4.43;;;;;;;;;;4956832;28;20654;-42
2022/08/13 02:00:00;;;;;;;7.80;5.00;;;;;;;;;;4956637;28;20174;-39
2022/08/13 02:02:27;;;;;;;6.83;4.53;;;;;;;;;;4951466;28;20234;-37
2022/08/13 02:04:55;;;;;;;8.70;5.37;;;;;;;;;;4952546;28;20284;-37
2022/08/13 02:07:21;;;;;;;9.67;6.60;;;;;;;;;;4956063;28;20385;-38
2022/08/13 02:09:48;;;;;;;8.17;5.33;;;;;;;;;;4955914;28;20178;-36
2022/08/13 02:12:15;;;;;;;7.90;6.73;;;;;;;;;;4951460;28;20729;-39
2022/08/13 02:14:45;;;;;;;8.50;7.57;;;;;;;;;;4953402;28;20315;-36
2022/08/13 02:17:27;;;;;;;11.23;9.70;;;;;;;;;;4954021;28;20179;-35
2022/08/13 02:19:56;;;;;;;13.33;10.67;;;;;;;;;;4950443;28;20590;-36
2022/08/13 02:22:23;;;;;;;18.03;14.27;;;;;;;;;;4951672;28;20171;-37
2022/08/13 02:24:53;;;;;;;17.37;14.60;;;;;;;;;;4956136;28;20213;-37
2022/08/13 02:27:20;;;;;;;18.67;14.67;;;;;;;;;;4952697;28;20345;-36
2022/08/13 02:29:48;;;;;;;18.33;16.43;;;;;;;;;;4952463;28;20603;-38
2022/08/13 02:32:14;;;;;;;17.10;15.40;;;;;;;;;;4955160;28;20200;-37
2022/08/13 02:34:40;;;;;;;17.77;15.47;;;;;;;;;;4953285;28;20182;-37
2022/08/13 02:37:06;;;;;;;16.23;14.43;;;;;;;;;;4951075;28;20637;-38
2022/08/13 02:39:32;;;;;;;15.77;14.20;;;;;;;;;;4953102;28;20182;-37
2022/08/13 02:41:58;;;;;;;16.83;15.13;;;;;;;;;;4954576;28;20481;-41
2022/08/13 02:44:25;;;;;;;19.90;15.97;;;;;;;;;;4951930;28;20224;-38
2022/08/13 02:46:51;;;;;;;17.37;15.47;;;;;;;;;;4952471;28;20284;-37
2022/08/13 02:49:21;;;;;;;17.90;14.70;;;;;;;;;;4952301;28;20189;-39
2022/08/13 02:51:47;;;;;;;16.03;14.33;;;;;;;;;;4951539;28;20178;-40
2022/08/13 02:54:16;;;;;;;20.47;16.83;;;;;;;;;;4957327;28;20697;-40
2022/08/13 02:56:44;;;;;;;21.43;19.03;;;;;;;;;;4953325;28;20734;-38
2022/08/13 02:59:10;;;;;;;19.67;17.60;;;;;;;;;;4954436;28;20170;-40
2022/08/13 03:01:40;;;;;;;16.83;14.83;;;;;;;;;;4950165;28;20174;-40
2022/08/13 03:04:07;;;;;;;20.57;18.40;;;;;;;;;;4952124;28;21147;-41
2022/08/13 03:06:33;;;;;;;18.43;16.00;;;;;;;;;;4955608;28;20641;-41
2022/08/13 03:09:01;;;;;;;17.07;15.30;;;;;;;;;;4952753;28;20292;-40
2022/08/13 03:11:29;;;;;;;22.00;19.10;;;;;;;;;;4949889;28;20179;-40
2022/08/13 03:14:00;;;;;;;20.40;17.23;;;;;;;;;;4954135;28;20175;-40
2022/08/13 03:16:27;;;;;;;19.93;16.80;;;;;;;;;;4950020;28;20607;-41
2022/08/13 03:18:54;;;;;;;18.27;16.57;;;;;;;;;;4948919;28;20431;-41
2022/08/13 03:21:34;;;;;;;20.47;17.30;;;;;;;;;;4955066;28;20621;-40
2022/08/13 03:24:03;;;;;;;17.10;15.43;;;;;;;;;;4953784;28;20177;-40
2022/08/13 03:26:30;;;;;;;18.73;17.00;;;;;;;;;;4950679;28;20205;-40
2022/08/13 03:28:57;;;;;;;18.37;16.57;;;;;;;;;;4954217;28;20277;-40
2022/08/13 03:31:24;;;;;;;19.57;16.53;;;;;;;;;;4954933;28;20174;-40
2022/08/13 03:33:50;;;;;;;18.33;16.53;;;;;;;;;;4954479;28;20443;-40
2022/08/13 03:36:17;;;;;;;20.10;18.07;;;;;;;;;;4956681;28;20694;-40
2022/08/13 03:38:43;;;;;;;22.77;19.70;;;;;;;;;;4958116;28;21216;-40
2022/08/13 03:41:14;;;;;;;18.30;15.67;;;;;;;;;;4957137;28;20182;-40
2022/08/13 03:43:42;;;;;;;18.77;16.87;;;;;;;;;;4953976;28;20328;-40
2022/08/13 03:46:12;;;;;;;22.40;20.13;;;;;;;;;;4950707;28;20261;-40
2022/08/13 03:48:38;;;;;;;20.37;17.57;;;;;;;;;;4956719;28;20566;-39
2022/08/13 03:51:06;;;;;;;18.97;16.97;;;;;;;;;;4950700;28;20174;-39
2022/08/13 03:53:32;;;;;;;19.17;17.10;;;;;;;;;;4956224;28;20225;-40
2022/08/13 03:55:59;;;;;;;20.57;17.93;;;;;;;;;;4957681;28;20966;-41
2022/08/13 03:58:26;;;;;;;19.87;17.63;;;;;;;;;;4955636;28;20210;-40
2022/08/13 04:00:53;;;;;;;18.43;16.57;;;;;;;;;;4957557;28;20185;-41
2022/08/13 04:03:24;;;;;;;19.57;17.57;;;;;;;;;;4953666;28;20524;-41
2022/08/13 04:05:53;;;;;;;17.30;15.50;;;;;;;;;;4952613;28;20273;-42
2022/08/13 04:08:20;;;;;;;18.57;16.67;;;;;;;;;;4953439;28;20228;-42
2022/08/13 04:10:49;;;;;;;22.10;16.90;;;;;;;;;;4955167;28;20620;-41
2022/08/13 04:13:16;;;;;;;21.00;18.83;;;;;;;;;;4955086;28;20178;-42
2022/08/13 04:15:43;;;;;;;19.60;17.60;;;;;;;;;;4951546;28;20574;-40
2022/08/13 04:18:13;;;;;;;19.23;17.20;;;;;;;;;;4957705;28;20714;-41
2022/08/13 04:20:52;;;;;;;19.93;17.83;;;;;;;;;;4955682;28;20293;-42
2022/08/13 04:23:19;;;;;;;21.97;19.17;;;;;;;;;;4953521;28;20380;-41
2022/08/13 04:25:46;;;;;;;19.10;17.20;;;;;;;;;;4953913;28;20178;-41
2022/08/13 04:28:13;;;;;;;20.27;18.17;;;;;;;;;;4956216;28;20193;-41
2022/08/13 04:30:41;;;;;;;18.37;15.50;;;;;;;;;;4956657;28;20181;-40
2022/08/13 04:33:09;;;;;;;14.73;13.10;;;;;;;;;;4954469;28;20959;-42
2022/08/13 04:35:36;;;;;;;16.07;14.37;;;;;;;;;;4956585;28;20731;-40
2022/08/13 04:38:02;;;;;;;17.87;16.07;;;;;;;;;;4954955;28;20221;-40
2022/08/13 04:40:28;;;;;;;14.23;12.70;;;;;;;;;;4952857;28;20413;-41
2022/08/13 04:42:56;;;;;;;12.50;11.20;;;;;;;;;;4956662;28;20598;-42
2022/08/13 04:45:23;;;;;;;12.80;11.60;;;;;;;;;;4958175;28;20769;-41
2022/08/13 04:47:49;;;;;;;14.23;12.83;;;;;;;;;;4954253;28;20182;-41
2022/08/13 04:50:15;;;;;;;12.87;11.57;;;;;;;;;;4952417;28;20193;-42
2022/08/13 04:52:41;;;;;;;10.30;9.33;;;;;;;;;;4956788;28;20180;-42
2022/08/13 04:55:12;;;;;;;10.67;8.33;;;;;;;;;;4955569;28;20647;-42
2022/08/13 04:57:38;;;;;;;13.13;9.60;;;;;;;;;;4955628;28;20268;-42
2022/08/13 05:00:06;;;;;;;10.23;8.03;;;;;;;;;;4956455;28;20960;-42
2022/08/13 05:02:36;;;;;;;9.20;8.40;;;;;;;;;;4954063;28;20349;-42
2022/08/13 05:05:03;;;;;;;11.43;10.27;;;;;;;;;;4953838;28;20269;-42
2022/08/13 05:07:29;;;;;;;14.03;12.40;;;;;;;;;;4956928;28;20182;-42
2022/08/13 05:09:55;;;;;;;13.67;10.30;;;;;;;;;;4952868;28;20190;-42
2022/08/13 05:12:21;;;;;;;12.13;10.93;;;;;;;;;;4954246;28;20568;-42
2022/08/13 05:14:47;;;;;;;12.67;11.37;;;;;;;;;;4955896;28;20202;-43
2022/08/13 05:17:13;;;;;;;12.97;11.57;;;;;;;;;;4953389;28;20726;-42
2022/08/13 05:19:40;;;;;;;13.13;11.83;;;;;;;;;;4953725;28;20186;-42
2022/08/13 05:22:06;;;;;;;11.67;10.53;;;;;;;;;;4958193;28;20657;-42
2022/08/13 05:24:33;;;;;;;13.47;12.07;;;;;;;;;;4953662;28;20432;-43
2022/08/13 05:26:59;;;;;;;13.47;11.30;;;;;;;;;;4954517;28;20715;-42
2022/08/13 05:29:25;;;;;;;13.37;12.07;;;;;;;;;;4952619;28;20178;-42
2022/08/13 05:31:54;;;;;;;14.33;12.83;;;;;;;;;;4953545;28;20641;-43
2022/08/13 05:34:20;;;;;;;15.47;13.87;;;;;;;;;;4953225;28;20445;-43
2022/08/13 05:36:46;;;;;;;15.53;13.90;;;;;;;;;;4956825;28;20633;-43
2022/08/13 05:39:13;;;;;;;14.23;12.73;;;;;;;;;;4955193;28;20194;-43
2022/08/13 05:41:41;;;;;;;14.93;12.47;;;;;;;;;;4951882;28;21391;-43
2022/08/13 05:44:09;;;;;;;16.53;13.10;;;;;;;;;;4952242;28;20185;-43
2022/08/13 05:46:36;;;;;;;15.77;12.27;;;;;;;;;;4956635;28;20183;-42
2022/08/13 05:49:03;;;;;;;14.77;11.90;;;;;;;;;;4951485;28;20174;-42
2022/08/13 05:51:31;;;;;;;12.33;11.13;;;;;;;;;;4954635;28;20321;-43
2022/08/13 05:53:59;;;;;;;11.23;10.13;;;;;;;;;;4956041;28;20538;-43
2022/08/13 05:56:25;;;;;;;11.53;10.23;;;;;;;;;;4953707;28;20603;-43
2022/08/13 05:58:52;;;;;;;11.27;10.13;;;;;;;;;;4953214;28;20275;-43
2022/08/13 06:04:04;;;;;;;17.00;14.50;;;;;;;;;;4954895;28;20628;-43
2022/08/13 06:06:30;;;;;;;19.17;16.60;;;;;;;;;;4953608;28;20373;-42
2022/08/13 06:08:58;;;;;;;16.67;15.00;;;;;;;;;;4954670;28;20462;-43
2022/08/13 06:11:24;;;;;;;16.63;14.83;;;;;;;;;;4952672;28;20445;-43
2022/08/13 06:13:50;;;;;;;17.50;15.67;;;;;;;;;;4951041;28;20448;-42
2022/08/13 06:16:18;;;;;;;16.57;14.43;;;;;;;;;;4955966;28;20272;-43
2022/08/13 06:18:46;;;;;;;13.40;12.00;;;;;;;;;;4954205;28;21217;-43
2022/08/13 06:21:13;;;;;;;10.50;9.40;;;;;;;;;;4954674;28;20182;-42
2022/08/13 06:23:40;;;;;;;6.80;6.10;;;;;;;;;;4952373;28;20176;-42
2022/08/13 06:26:07;;;;;;;6.00;5.40;;;;;;;;;;4955285;28;20666;-42
2022/08/13 06:28:34;;;;;;;5.93;4.83;;;;;;;;;;4950384;28;20287;-42
2022/08/13 06:31:01;;;;;;;5.17;4.67;;;;;;;;;;4953523;28;20284;-43
2022/08/13 06:33:28;;;;;;;6.33;5.23;;;;;;;;;;4955236;28;20734;-43
2022/08/13 06:35:56;;;;;;;7.00;4.43;;;;;;;;;;4954458;28;20205;-43
2022/08/13 06:38:23;;;;;;;11.00;4.60;;;;;;;;;;4951461;28;20757;-43
2022/08/13 06:40:50;;;;;;;5.47;3.90;;;;;;;;;;4955520;28;20174;-43
2022/08/13 06:43:17;;;;;;;4.03;3.30;;;;;;;;;;4955548;28;20270;-43
2022/08/13 06:45:43;;;;;;;4.17;3.60;;;;;;;;;;4953558;28;20516;-43
2022/08/13 06:48:09;;;;;;;5.20;2.90;;;;;;;;;;4954594;28;20480;-42
2022/08/13 06:50:37;;;;;;;6.00;3.00;;;;;;;;;;4956498;28;20574;-43
2022/08/13 06:53:08;;;;;;;3.20;2.87;;;;;;;;;;4953743;28;20837;-43
2022/08/13 06:55:38;;;;;;;6.27;2.40;;;;;;;;;;4955458;28;20656;-43
2022/08/13 06:58:05;;;;;;;2.43;2.23;;;;;;;;;;4957054;28;20182;-42
2022/08/13 07:00:32;;;;;;;4.63;2.63;;;;;;;;;;4952803;28;20178;-44
2022/08/13 07:02:59;;;;;;;2.87;2.33;;;;;;;;;;4954881;28;20185;-43
2022/08/13 07:05:33;;;;;;;3.53;2.70;;;;;;;;;;4955615;28;20174;-43
2022/08/13 07:08:02;;;;;;;3.17;2.30;;;;;;;;;;4958045;28;20182;-43
2022/08/13 07:10:28;;;;;;;4.33;2.30;;;;;;;;;;4958242;28;20174;-43
2022/08/13 07:12:55;;;;;;;3.83;2.53;;;;;;;;;;4959569;28;20186;-43
2022/08/13 07:15:22;;;;;;;3.23;2.47;;;;;;;;;;4958763;28;20945;-44
2022/08/13 07:17:50;;;;;;;4.53;2.37;;;;;;;;;;4954181;28;20626;-44
2022/08/13 07:20:17;;;;;;;2.40;2.20;;;;;;;;;;4956387;28;20784;-44
2022/08/13 07:22:43;;;;;;;3.80;2.27;;;;;;;;;;4958164;28;20441;-44
2022/08/13 07:25:10;;;;;;;2.90;2.20;;;;;;;;;;4957389;28;20182;-44
2022/08/13 07:27:40;;;;;;;3.30;2.17;;;;;;;;;;4955612;28;20186;-44
2022/08/13 07:30:07;;;;;;;4.20;2.43;;;;;;;;;;4958702;28;20462;-44
2022/08/13 07:32:37;;;;;;;2.20;1.97;;;;;;;;;;4957022;28;20378;-44
2022/08/13 07:35:04;;;;;;;3.43;2.10;;;;;;;;;;4957688;28;20194;-44
2022/08/13 07:37:30;;;;;;;2.47;2.27;;;;;;;;;;4958317;28;20327;-44
2022/08/13 07:39:56;;;;;;;2.53;2.00;;;;;;;;;;4955434;28;20769;-44
2022/08/13 07:42:23;;;;;;;3.03;2.60;;;;;;;;;;4958484;28;20869;-44
2022/08/13 07:44:52;;;;;;;4.80;2.60;;;;;;;;;;4960675;28;20445;-44
2022/08/13 07:47:19;;;;;;;2.80;2.40;;;;;;;;;;4955236;28;20285;-45
2022/08/13 07:49:46;;;;;;;3.33;2.40;;;;;;;;;;4956965;28;20174;-45
2022/08/13 07:52:16;;;;;;;6.17;2.43;;;;;;;;;;4958098;28;20550;-44
2022/08/13 07:54:43;;;;;;;2.73;2.17;;;;;;;;;;4970853;28;20206;-44
2022/08/13 07:57:10;;;;;;;2.83;2.33;;;;;;;;;;4956436;28;20721;-44
2022/08/13 07:59:37;;;;;;;3.27;2.43;;;;;;;;;;4958453;28;20178;-44
2022/08/13 08:02:06;;;;;;;3.57;2.80;;;;;;;;;;4956600;28;20757;-44
2022/08/13 08:04:34;;;;;;;2.93;2.67;;;;;;;;;;4958753;28;20436;-44
2022/08/13 08:07:01;;;;;;;3.67;2.30;;;;;;;;;;4958590;28;20281;-44
2022/08/13 08:09:29;;;;;;;3.27;2.57;;;;;;;;;;4955627;28;20696;-45
2022/08/13 08:14:42;;;;;;;4.40;2.67;;;;;;;;;;4955629;28;20218;-44
2022/08/13 08:17:10;;;;;;;3.73;2.50;;;;;;;;;;4954735;28;20444;-45
2022/08/13 08:19:38;;;;;;;4.53;2.43;;;;;;;;;;4956207;28;21324;-44
2022/08/13 08:22:06;;;;;;;4.20;2.63;;;;;;;;;;4952417;28;20170;-45
2022/08/13 08:24:33;;;;;;;2.90;2.60;;;;;;;;;;4952856;28;20174;-45
2022/08/13 08:27:04;;;;;;;3.17;2.33;;;;;;;;;;4957476;28;20545;-45
2022/08/13 08:29:31;;;;;;;3.37;2.27;;;;;;;;;;4951403;28;20411;-45
2022/08/13 08:31:59;;;;;;;3.20;2.20;;;;;;;;;;4954322;28;20540;-45
2022/08/13 08:34:25;;;;;;;2.50;2.30;;;;;;;;;;4956213;28;20948;-45
2022/08/13 08:36:56;;;;;;;5.07;2.50;;;;;;;;;;4956051;28;20841;-45
2022/08/13 08:42:35;;;;;;;2.77;2.23;;;;;;;;;;4952947;28;20181;-45
2022/08/13 08:45:01;;;;;;;3.57;2.17;;;;;;;;;;4956619;28;20229;-45
2022/08/13 08:47:32;;;;;;;2.53;2.00;;;;;;;;;;4957345;28;20184;-45
2022/08/13 08:49:58;;;;;;;3.77;2.07;;;;;;;;;;4956846;28;20194;-45
2022/08/13 08:55:14;;;;;;;2.37;2.03;;;;;;;;;;4959045;28;20275;-45
2022/08/13 09:00:45;;;;;;;2.17;1.87;;;;;;;;;;4958129;28;20173;-45
2022/08/13 09:03:14;;;;;;;5.17;2.30;;;;;;;;;;4956470;28;20186;-45
2022/08/13 09:05:40;;;;;;;1.97;1.80;;;;;;;;;;4956738;28;20190;-46
2022/08/13 09:08:07;;;;;;;2.03;1.60;;;;;;;;;;4959099;28;20893;-45
2022/08/13 09:10:36;;;;;;;2.87;2.20;;;;;;;;;;4956361;28;20281;-45
2022/08/13 09:13:03;;;;;;;2.17;1.97;;;;;;;;;;4959136;28;20185;-45
2022/08/13 09:15:31;;;;;;;2.47;2.03;;;;;;;;;;4956680;28;20217;-45
2022/08/13 09:17:58;;;;;;;4.90;2.63;;;;;;;;;;4953563;28;20183;-45
2022/08/13 09:20:25;;;;;;;3.57;2.90;;;;;;;;;;4957206;28;20489;-45
2022/08/13 09:23:18;;;;;;;2.47;2.27;;;;;;;;;;4958326;28;20174;-46
2022/08/13 09:25:51;;;;;;;2.10;1.90;;;;;;;;;;4954225;28;20357;-45
2022/08/13 09:28:23;;;;;;;3.37;2.10;;;;;;;;;;4954222;28;20964;-45
2022/08/13 09:30:50;;;;;;;4.13;2.10;;;;;;;;;;4958238;28;20182;-45
2022/08/13 09:33:18;;;;;;;2.63;2.43;;;;;;;;;;4958053;28;20193;-45
2022/08/13 09:35:44;;;;;;;2.67;2.47;;;;;;;;;;4956751;28;20198;-45
2022/08/13 09:38:11;;;;;;;2.83;2.40;;;;;;;;;;4959837;28;20209;-45
2022/08/13 09:40:39;;;;;;;2.90;2.27;;;;;;;;;;4955996;28;20178;-45
2022/08/13 09:43:08;;;;;;;2.87;2.00;;;;;;;;;;4957094;28;20194;-45
2022/08/13 09:45:34;;;;;;;2.33;1.43;;;;;;;;;;4959272;28;20186;-45
2022/08/13 09:48:02;;;;;;;2.63;2.30;;;;;;;;;;4957057;28;20599;-45
2022/08/13 09:50:28;;;;;;;2.97;2.00;;;;;;;;;;4957197;28;20181;-45
2022/08/13 09:52:56;;;;;;;2.17;1.97;;;;;;;;;;4959565;28;20214;-45
2022/08/13 09:55:23;;;;;;;3.40;2.00;;;;;;;;;;4957575;28;20232;-45
2022/08/13 09:57:49;;;;;;;2.00;1.80;;;;;;;;;;4956109;28;20178;-45
2022/08/13 10:00:24;;;;;;;2.67;1.50;;;;;;;;;;4960435;28;21394;-45
2022/08/13 10:02:54;;;;;;;2.30;1.80;;;;;;;;;;4957189;28;20180;-44
2022/08/13 10:05:21;;;;;;;2.73;1.60;;;;;;;;;;4957877;28;20241;-44
2022/08/13 10:07:47;;;;;;;4.60;1.50;;;;;;;;;;4956711;28;20178;-45
2022/08/13 10:10:14;;;;;;;2.17;1.50;;;;;;;;;;4954059;28;20221;-45
2022/08/13 10:12:41;;;;;;;3.40;1.40;;;;;;;;;;4958005;28;20264;-45
2022/08/13 10:15:08;;;;;;;1.70;1.30;;;;;;;;;;4959430;28;20210;-45
2022/08/13 10:17:48;;;;;;;2.27;1.30;;;;;;;;;;4956886;28;20182;-44
2022/08/13 10:20:19;;;;;;;1.53;1.40;;;;;;;;;;4957088;28;20296;-45
2022/08/13 10:22:45;;;;;;;2.93;1.70;;;;;;;;;;4959505;28;20187;-45
2022/08/13 10:25:12;;;;;;;1.60;1.23;;;;;;;;;;4958606;28;20267;-45
2022/08/13 10:27:39;;;;;;;2.77;1.57;;;;;;;;;;4957066;28;20613;-45
2022/08/13 10:30:06;;;;;;;2.57;1.70;;;;;;;;;;4959785;28;20180;-45
2022/08/13 10:32:32;;;;;;;2.60;1.50;;;;;;;;;;4956698;28;21180;-45
2022/08/13 10:35:01;;;;;;;1.63;1.50;;;;;;;;;;4956803;28;20206;-45
2022/08/13 10:37:28;;;;;;;3.47;1.60;;;;;;;;;;4957591;28;20190;-45
2022/08/13 10:39:55;;;;;;;1.70;1.60;;;;;;;;;;4952885;28;20626;-45
2022/08/13 10:42:21;;;;;;;3.17;1.67;;;;;;;;;;4957582;28;20177;-44
2022/08/13 10:44:52;;;;;;;2.20;1.63;;;;;;;;;;4958500;28;20170;-44
2022/08/13 10:47:24;;;;;;;2.40;1.70;;;;;;;;;;4956573;28;21051;-44
2022/08/13 10:49:51;;;;;;;2.30;1.63;;;;;;;;;;4957165;28;20228;-44
2022/08/13 10:52:18;;;;;;;2.73;1.80;;;;;;;;;;4957761;28;20841;-44
2022/08/13 10:54:48;;;;;;;3.73;1.60;;;;;;;;;;4954447;28;20441;-44
2022/08/13 10:57:15;;;;;;;2.60;1.40;;;;;;;;;;4957088;28;20182;-44
2022/08/13 10:59:43;;;;;;;4.90;1.63;;;;;;;;;;4956383;28;20334;-45
2022/08/13 11:02:09;;;;;;;1.63;1.53;;;;;;;;;;4956463;28;20269;-45
2022/08/13 11:04:39;;;;;;;1.57;1.40;;;;;;;;;;4958487;28;20175;-44
2022/08/13 11:07:08;;;;;;;3.23;1.60;;;;;;;;;;4957571;28;20186;-45
2022/08/13 11:09:37;;;;;;;2.10;1.60;;;;;;;;;;4954735;28;20996;-44
2022/08/13 11:12:03;;;;;;;1.60;1.50;;;;;;;;;;4958235;28;20302;-44
2022/08/13 11:14:30;;;;;;;2.40;1.57;;;;;;;;;;4956557;28;20201;-44
2022/08/13 11:16:59;;;;;;;1.83;1.43;;;;;;;;;;4956791;28;20252;-44
2022/08/13 11:19:28;;;;;;;3.10;1.80;;;;;;;;;;4957859;28;20204;-44
2022/08/13 11:21:55;;;;;;;3.33;1.60;;;;;;;;;;4954686;28;20253;-45
2022/08/13 11:24:21;;;;;;;2.63;1.70;;;;;;;;;;4954526;28;20175;-44
2022/08/13 11:26:48;;;;;;;2.30;1.57;;;;;;;;;;4955151;28;20206;-44
2022/08/13 11:29:14;;;;;;;3.83;1.77;;;;;;;;;;4958917;28;20190;-45
2022/08/13 11:31:40;;;;;;;2.70;1.60;;;;;;;;;;4955940;28;20237;-45
2022/08/13 11:34:07;;;;;;;2.27;1.67;;;;;;;;;;4949667;28;20826;-45
2022/08/13 11:36:34;;;;;;;2.47;1.53;;;;;;;;;;4956406;28;20199;-45
2022/08/13 11:39:00;;;;;;;4.90;1.63;;;;;;;;;;4954372;28;20220;-45
2022/08/13 11:41:27;;;;;;;3.30;1.80;;;;;;;;;;4948394;28;20174;-45
2022/08/13 11:43:53;;;;;;;2.37;1.50;;;;;;;;;;4953739;28;20174;-45
2022/08/13 11:46:20;;;;;;;3.97;1.80;;;;;;;;;;4954304;28;20615;-45
2022/08/13 11:48:46;;;;;;;1.50;1.40;;;;;;;;;;4951988;28;20229;-45
2022/08/13 11:51:12;;;;;;;1.70;1.47;;;;;;;;;;4954269;28;20193;-45
2022/08/13 11:53:38;;;;;;;2.33;1.70;;;;;;;;;;4956425;28;20743;-45
2022/08/13 11:56:04;;;;;;;1.90;1.70;;;;;;;;;;4953687;28;20716;-45
2022/08/13 11:58:32;;;;;;;2.40;1.77;;;;;;;;;;4954968;28;20178;-45
2022/08/13 12:00:59;;;;;;;2.20;1.47;;;;;;;;;;4958737;28;20992;-45
2022/08/13 12:03:25;;;;;;;1.77;1.50;;;;;;;;;;4955133;28;20205;-45
2022/08/13 12:05:51;;;;;;;1.50;1.40;;;;;;;;;;4955904;28;20276;-45
2022/08/13 12:08:18;;;;;;;1.90;1.60;;;;;;;;;;4956725;28;20531;-45
2022/08/13 12:10:45;;;;;;;3.97;1.70;;;;;;;;;;4954758;28;20260;-45
2022/08/13 12:13:11;;;;;;;2.23;1.87;;;;;;;;;;4956470;28;20702;-45
2022/08/13 12:15:37;;;;;;;3.87;1.80;;;;;;;;;;4954786;28;20252;-45
2022/08/13 12:18:04;;;;;;;2.60;1.40;;;;;;;;;;4953088;28;20767;-45
2022/08/13 12:20:30;;;;;;;1.90;1.70;;;;;;;;;;4959988;28;20186;-45
2022/08/13 12:22:57;;;;;;;2.10;1.70;;;;;;;;;;4954957;28;20788;-45
2022/08/13 12:25:26;;;;;;;2.60;1.80;;;;;;;;;;4953545;28;20659;-45
2022/08/13 12:28:12;;;;;;;2.33;1.60;;;;;;;;;;4958549;28;20183;-45
2022/08/13 12:30:39;;;;;;;2.13;1.80;;;;;;;;;;4955100;28;20186;-45
2022/08/13 12:33:05;;;;;;;2.13;1.80;;;;;;;;;;4956548;28;20197;-45
2022/08/13 12:35:32;;;;;;;2.57;1.67;;;;;;;;;;4956894;28;20199;-45
2022/08/13 12:37:58;;;;;;;2.87;1.87;;;;;;;;;;4952791;28;20227;-45
2022/08/13 12:40:24;;;;;;;2.60;1.80;;;;;;;;;;4955191;28;20170;-45
2022/08/13 12:42:51;;;;;;;2.07;1.87;;;;;;;;;;4957126;28;20186;-45
2022/08/13 12:45:17;;;;;;;1.97;1.53;;;;;;;;;;4953621;28;20182;-45
2022/08/13 12:47:46;;;;;;;1.93;1.53;;;;;;;;;;4957201;28;20185;-45
2022/08/13 12:50:12;;;;;;;2.37;1.60;;;;;;;;;;4957379;28;20186;-45
2022/08/13 12:52:38;;;;;;;2.97;1.80;;;;;;;;;;4952429;28;20594;-45
2022/08/13 12:55:05;;;;;;;2.63;1.90;;;;;;;;;;4952223;28;20201;-45
2022/08/13 12:57:31;;;;;;;3.17;1.70;;;;;;;;;;4956785;28;20982;-45
2022/08/13 12:59:57;;;;;;;3.50;1.60;;;;;;;;;;4953451;28;20182;-45
2022/08/13 13:02:23;;;;;;;4.47;1.80;;;;;;;;;;4954010;28;20181;-45
2022/08/13 13:04:49;;;;;;;4.53;1.60;;;;;;;;;;4953955;28;20509;-45
2022/08/13 13:07:15;;;;;;;2.33;2.00;;;;;;;;;;4954815;28;20205;-45
2022/08/13 13:09:42;;;;;;;4.53;1.63;;;;;;;;;;4953086;28;20679;-46
2022/08/13 13:12:08;;;;;;;1.80;1.50;;;;;;;;;;4955753;28;20739;-45
2022/08/13 13:14:35;;;;;;;2.60;1.40;;;;;;;;;;4955260;28;20803;-45
2022/08/13 13:17:01;;;;;;;3.13;1.60;;;;;;;;;;4953287;28;20183;-45
2022/08/13 13:19:27;;;;;;;2.07;1.67;;;;;;;;;;4953996;28;20264;-45
2022/08/13 13:21:53;;;;;;;1.93;1.60;;;;;;;;;;4951154;28;20433;-45
2022/08/13 13:24:19;;;;;;;2.83;1.67;;;;;;;;;;4953613;28;20757;-45
2022/08/13 13:26:54;;;;;;;2.90;1.50;;;;;;;;;;4955427;28;20190;-45
2022/08/13 13:29:21;;;;;;;2.73;1.60;;;;;;;;;;4954692;28;20188;-45
2022/08/13 13:31:47;;;;;;;2.23;1.77;;;;;;;;;;4950594;28;20186;-45
2022/08/13 13:34:17;;;;;;;1.47;1.37;;;;;;;;;;4954975;28;20309;-45
2022/08/13 13:36:44;;;;;;;1.43;1.30;;;;;;;;;;4954055;28;21399;-45
2022/08/13 13:39:10;;;;;;;2.70;1.40;;;;;;;;;;4952056;28;20189;-45
2022/08/13 13:41:37;;;;;;;1.50;1.40;;;;;;;;;;4951983;28;20626;-45
2022/08/13 13:44:03;;;;;;;2.60;1.53;;;;;;;;;;4957201;28;20645;-45
2022/08/13 13:46:29;;;;;;;1.70;1.60;;;;;;;;;;4952699;28;20182;-45
2022/08/13 13:48:55;;;;;;;3.17;1.50;;;;;;;;;;4953187;28;20182;-44
2022/08/13 13:51:21;;;;;;;4.03;1.53;;;;;;;;;;4956367;28;20202;-45
2022/08/13 13:53:48;;;;;;;1.43;1.33;;;;;;;;;;4954192;28;20370;-45
2022/08/13 13:56:15;;;;;;;2.33;1.40;;;;;;;;;;4954351;28;20355;-45
2022/08/13 13:58:42;;;;;;;2.57;1.40;;;;;;;;;;4957864;28;20650;-44
2022/08/13 14:01:08;;;;;;;2.47;1.40;;;;;;;;;;4954982;28;20182;-44
2022/08/13 14:03:35;;;;;;;1.60;1.50;;;;;;;;;;4954942;28;20175;-44
2022/08/13 14:06:02;;;;;;;3.00;1.53;;;;;;;;;;4952338;28;20624;-44
2022/08/13 14:08:28;;;;;;;1.57;1.30;;;;;;;;;;4955094;28;20247;-44
2022/08/13 14:10:55;;;;;;;2.70;1.30;;;;;;;;;;4948561;28;20186;-44
2022/08/13 14:13:21;;;;;;;1.47;1.33;;;;;;;;;;4955693;28;20302;-44
2022/08/13 14:15:48;;;;;;;2.40;1.60;;;;;;;;;;4955039;28;20215;-44
2022/08/13 14:18:15;;;;;;;2.67;1.47;;;;;;;;;;4953345;28;20278;-43
2022/08/13 14:20:42;;;;;;;1.77;1.50;;;;;;;;;;4952654;28;20465;-42
2022/08/13 14:23:08;;;;;;;2.80;1.30;;;;;;;;;;4953763;28;20609;-44
2022/08/13 14:25:36;;;;;;;3.23;1.50;;;;;;;;;;4953881;28;20273;-43
2022/08/13 14:28:02;;;;;;;1.30;1.17;;;;;;;;;;4949581;28;20610;-44
2022/08/13 14:30:28;;;;;;;3.47;1.30;;;;;;;;;;4951995;28;21009;-44
2022/08/13 14:32:54;;;;;;;3.13;1.50;;;;;;;;;;4954542;28;20183;-44
2022/08/13 14:35:21;;;;;;;1.97;1.40;;;;;;;;;;4952578;28;20204;-44
2022/08/13 14:37:48;;;;;;;2.60;1.30;;;;;;;;;;4950437;28;20247;-44
2022/08/13 14:40:17;;;;;;;2.13;1.40;;;;;;;;;;4953336;28;20770;-44
2022/08/13 14:42:55;;;;;;;2.63;1.50;;;;;;;;;;4951190;28;20241;-44
2022/08/13 14:48:19;;;;;;;4.17;1.40;;;;;;;;;;4952225;28;20291;-44
2022/08/13 14:51:05;;;;;;;4.73;1.50;;;;;;;;;;4952102;28;20276;-44
2022/08/13 14:53:32;;;;;;;2.90;1.33;;;;;;;;;;4954868;28;20787;-44
2022/08/13 14:56:00;;;;;;;1.93;1.10;;;;;;;;;;4954445;28;20440;-44
2022/08/13 14:58:27;;;;;;;2.57;1.40;;;;;;;;;;4950393;28;20228;-44
2022/08/13 15:00:55;;;;;;;1.73;1.07;;;;;;;;;;4952157;28;20315;-44
2022/08/13 15:03:22;;;;;;;2.27;1.20;;;;;;;;;;4953964;28;20593;-44